sensor_id;sensor_type;location;lat;lon;timestamp;temperature;humidity
12901;DHT22;6518;50.930;5.344;2022-12-18T00:00:58;-3.60;99.90
12901;DHT22;6518;50.930;5.344;2022-12-18T00:03:27;-3.50;99.90
12901;DHT22;6518;50.930;5.344;2022-12-18T00:05:53;-3.60;99.90
12901;DHT22;6518;50.930;5.344;2022-12-18T00:08:20;-3.60;99.90
12901;DHT22;6518;50.930;5.344;2022-12-18T00:10:47;-3.60;99.90
12901;DHT22;6518;50.930;5.344;2022-12-18T00:13:14;-3.70;99.90
12901;DHT22;6518;50.930;5.344;2022-12-18T00:15:41;-3.60;99.90
12901;DHT22;6518;50.930;5.344;2022-12-18T00:18:08;-3.70;99.90
12901;DHT22;6518;50.930;5.344;2022-12-18T00:20:39;-3.70;99.90
12901;DHT22;6518;50.930;5.344;2022-12-18T00:23:07;-3.70;99.90
12901;DHT22;6518;50.930;5.344;2022-12-18T00:25:34;-3.60;99.90
12901;DHT22;6518;50.930;5.344;2022-12-18T00:28:02;-3.70;99.90
12901;DHT22;6518;50.930;5.344;2022-12-18T00:30:29;-3.60;99.90
12901;DHT22;6518;50.930;5.344;2022-12-18T00:32:57;-3.60;99.90
12901;DHT22;6518;50.930;5.344;2022-12-18T00:35:24;-3.60;99.90
12901;DHT22;6518;50.930;5.344;2022-12-18T00:37:52;-3.60;99.90
12901;DHT22;6518;50.930;5.344;2022-12-18T00:40:19;-3.60;99.90
12901;DHT22;6518;50.930;5.344;2022-12-18T00:42:46;-3.60;99.90
12901;DHT22;6518;50.930;5.344;2022-12-18T00:45:25;-3.60;99.90
12901;DHT22;6518;50.930;5.344;2022-12-18T00:47:52;-3.60;99.90
12901;DHT22;6518;50.930;5.344;2022-12-18T00:50:20;-3.60;99.90
12901;DHT22;6518;50.930;5.344;2022-12-18T00:52:47;-3.60;99.90
12901;DHT22;6518;50.930;5.344;2022-12-18T00:55:16;-3.70;99.90
12901;DHT22;6518;50.930;5.344;2022-12-18T00:57:43;-3.70;99.90
12901;DHT22;6518;50.930;5.344;2022-12-18T01:00:13;-3.70;99.90
12901;DHT22;6518;50.930;5.344;2022-12-18T01:02:40;-3.70;99.90
12901;DHT22;6518;50.930;5.344;2022-12-18T01:05:09;-3.80;99.90
12901;DHT22;6518;50.930;5.344;2022-12-18T01:07:37;-3.80;99.90
12901;DHT22;6518;50.930;5.344;2022-12-18T01:10:05;-3.80;99.90
12901;DHT22;6518;50.930;5.344;2022-12-18T01:12:33;-3.80;99.90
12901;DHT22;6518;50.930;5.344;2022-12-18T01:15:01;-3.90;99.90
12901;DHT22;6518;50.930;5.344;2022-12-18T01:17:28;-3.90;99.90
12901;DHT22;6518;50.930;5.344;2022-12-18T01:19:55;-3.90;99.90
12901;DHT22;6518;50.930;5.344;2022-12-18T01:22:22;-3.90;99.90
12901;DHT22;6518;50.930;5.344;2022-12-18T01:24:49;-3.90;99.90
12901;DHT22;6518;50.930;5.344;2022-12-18T01:27:16;-4.00;99.90
12901;DHT22;6518;50.930;5.344;2022-12-18T01:29:44;-4.00;99.90
12901;DHT22;6518;50.930;5.344;2022-12-18T01:32:11;-4.00;99.90
12901;DHT22;6518;50.930;5.344;2022-12-18T01:34:38;-4.10;99.90
12901;DHT22;6518;50.930;5.344;2022-12-18T01:37:05;-4.10;99.90
12901;DHT22;6518;50.930;5.344;2022-12-18T01:39:33;-4.00;99.90
12901;DHT22;6518;50.930;5.344;2022-12-18T01:42:00;-4.00;99.90
12901;DHT22;6518;50.930;5.344;2022-12-18T01:44:57;-4.00;99.90
12901;DHT22;6518;50.930;5.344;2022-12-18T01:47:27;-4.00;99.90
12901;DHT22;6518;50.930;5.344;2022-12-18T01:49:56;-4.10;99.90
12901;DHT22;6518;50.930;5.344;2022-12-18T01:52:24;-4.10;99.90
12901;DHT22;6518;50.930;5.344;2022-12-18T01:54:53;-4.10;99.90
12901;DHT22;6518;50.930;5.344;2022-12-18T01:57:22;-4.10;99.90
12901;DHT22;6518;50.930;5.344;2022-12-18T01:59:52;-4.10;99.90
12901;DHT22;6518;50.930;5.344;2022-12-18T02:02:21;-4.20;99.90
12901;DHT22;6518;50.930;5.344;2022-12-18T02:04:47;-4.20;99.90
12901;DHT22;6518;50.930;5.344;2022-12-18T02:07:29;-4.20;99.90
12901;DHT22;6518;50.930;5.344;2022-12-18T02:10:02;-4.20;99.90
12901;DHT22;6518;50.930;5.344;2022-12-18T02:12:35;-4.30;99.90
12901;DHT22;6518;50.930;5.344;2022-12-18T02:15:12;-4.30;99.90
12901;DHT22;6518;50.930;5.344;2022-12-18T02:17:46;-4.20;99.90
12901;DHT22;6518;50.930;5.344;2022-12-18T02:20:18;-4.30;99.90
12901;DHT22;6518;50.930;5.344;2022-12-18T02:22:59;-4.30;99.90
12901;DHT22;6518;50.930;5.344;2022-12-18T02:25:43;-4.20;99.90
12901;DHT22;6518;50.930;5.344;2022-12-18T02:28:16;-4.30;99.90
12901;DHT22;6518;50.930;5.344;2022-12-18T02:30:47;-4.30;99.90
12901;DHT22;6518;50.930;5.344;2022-12-18T02:33:16;-4.30;99.90
12901;DHT22;6518;50.930;5.344;2022-12-18T02:35:45;-4.30;99.90
12901;DHT22;6518;50.930;5.344;2022-12-18T02:38:13;-4.40;99.90
12901;DHT22;6518;50.930;5.344;2022-12-18T02:40:42;-4.40;99.90
12901;DHT22;6518;50.930;5.344;2022-12-18T02:43:10;-4.40;99.90
12901;DHT22;6518;50.930;5.344;2022-12-18T02:45:48;-4.40;99.90
12901;DHT22;6518;50.930;5.344;2022-12-18T02:48:17;-4.40;99.90
12901;DHT22;6518;50.930;5.344;2022-12-18T02:50:51;-4.50;99.90
12901;DHT22;6518;50.930;5.344;2022-12-18T02:53:27;-4.50;99.90
12901;DHT22;6518;50.930;5.344;2022-12-18T02:56:00;-4.50;99.90
12901;DHT22;6518;50.930;5.344;2022-12-18T02:58:33;-4.50;99.90
12901;DHT22;6518;50.930;5.344;2022-12-18T03:01:11;-4.60;99.90
12901;DHT22;6518;50.930;5.344;2022-12-18T03:03:40;-4.50;99.90
12901;DHT22;6518;50.930;5.344;2022-12-18T03:06:10;-4.50;99.90
12901;DHT22;6518;50.930;5.344;2022-12-18T03:08:43;-4.60;99.90
12901;DHT22;6518;50.930;5.344;2022-12-18T03:11:12;-4.60;99.90
12901;DHT22;6518;50.930;5.344;2022-12-18T03:13:44;-4.60;99.90
12901;DHT22;6518;50.930;5.344;2022-12-18T03:16:18;-4.60;99.90
12901;DHT22;6518;50.930;5.344;2022-12-18T03:18:52;-4.60;99.90
12901;DHT22;6518;50.930;5.344;2022-12-18T03:21:24;-4.60;99.90
12901;DHT22;6518;50.930;5.344;2022-12-18T03:23:53;-4.60;99.90
12901;DHT22;6518;50.930;5.344;2022-12-18T03:26:23;-4.60;99.90
12901;DHT22;6518;50.930;5.344;2022-12-18T03:28:52;-4.60;99.90
12901;DHT22;6518;50.930;5.344;2022-12-18T03:31:23;-4.60;99.90
12901;DHT22;6518;50.930;5.344;2022-12-18T03:33:52;-4.60;99.90
12901;DHT22;6518;50.930;5.344;2022-12-18T03:36:20;-4.60;99.90
12901;DHT22;6518;50.930;5.344;2022-12-18T03:38:47;-4.60;99.90
12901;DHT22;6518;50.930;5.344;2022-12-18T03:41:18;-4.60;99.90
12901;DHT22;6518;50.930;5.344;2022-12-18T03:43:50;-4.60;99.90
12901;DHT22;6518;50.930;5.344;2022-12-18T03:46:26;-4.60;99.90
12901;DHT22;6518;50.930;5.344;2022-12-18T03:48:59;-4.70;99.90
12901;DHT22;6518;50.930;5.344;2022-12-18T03:51:33;-4.60;99.90
12901;DHT22;6518;50.930;5.344;2022-12-18T03:54:05;-4.60;99.90
12901;DHT22;6518;50.930;5.344;2022-12-18T03:56:35;-4.60;99.90
12901;DHT22;6518;50.930;5.344;2022-12-18T03:59:04;-4.60;99.90
12901;DHT22;6518;50.930;5.344;2022-12-18T04:01:35;-4.60;99.90
12901;DHT22;6518;50.930;5.344;2022-12-18T04:04:05;-4.50;99.90
12901;DHT22;6518;50.930;5.344;2022-12-18T04:06:34;-4.60;99.90
12901;DHT22;6518;50.930;5.344;2022-12-18T04:09:02;-4.60;99.90
12901;DHT22;6518;50.930;5.344;2022-12-18T04:11:29;-4.60;99.90
12901;DHT22;6518;50.930;5.344;2022-12-18T04:13:56;-4.50;99.90
12901;DHT22;6518;50.930;5.344;2022-12-18T04:16:23;-4.50;99.90
12901;DHT22;6518;50.930;5.344;2022-12-18T04:18:52;-4.60;99.90
12901;DHT22;6518;50.930;5.344;2022-12-18T04:21:19;-4.50;99.90
12901;DHT22;6518;50.930;5.344;2022-12-18T04:23:46;-4.50;99.90
12901;DHT22;6518;50.930;5.344;2022-12-18T04:26:13;-4.50;99.90
12901;DHT22;6518;50.930;5.344;2022-12-18T04:28:40;-4.50;99.90
12901;DHT22;6518;50.930;5.344;2022-12-18T04:31:07;-4.50;99.90
12901;DHT22;6518;50.930;5.344;2022-12-18T04:33:34;-4.50;99.90
12901;DHT22;6518;50.930;5.344;2022-12-18T04:36:02;-4.60;99.90
12901;DHT22;6518;50.930;5.344;2022-12-18T04:38:30;-4.50;99.90
12901;DHT22;6518;50.930;5.344;2022-12-18T04:40:58;-4.60;99.90
12901;DHT22;6518;50.930;5.344;2022-12-18T04:43:24;-4.70;99.90
12901;DHT22;6518;50.930;5.344;2022-12-18T04:45:51;-4.70;99.90
12901;DHT22;6518;50.930;5.344;2022-12-18T04:48:18;-4.70;99.90
12901;DHT22;6518;50.930;5.344;2022-12-18T04:50:46;-4.70;99.90
12901;DHT22;6518;50.930;5.344;2022-12-18T04:53:15;-4.80;99.90
12901;DHT22;6518;50.930;5.344;2022-12-18T04:55:42;-4.80;99.90
12901;DHT22;6518;50.930;5.344;2022-12-18T04:58:08;-4.80;99.90
12901;DHT22;6518;50.930;5.344;2022-12-18T05:00:38;-4.80;99.90
12901;DHT22;6518;50.930;5.344;2022-12-18T05:03:08;-4.90;99.90
12901;DHT22;6518;50.930;5.344;2022-12-18T05:05:38;-4.90;99.90
12901;DHT22;6518;50.930;5.344;2022-12-18T05:08:05;-4.90;99.90
12901;DHT22;6518;50.930;5.344;2022-12-18T05:10:34;-5.00;99.90
12901;DHT22;6518;50.930;5.344;2022-12-18T05:13:00;-5.00;99.90
12901;DHT22;6518;50.930;5.344;2022-12-18T05:15:28;-5.00;99.90
12901;DHT22;6518;50.930;5.344;2022-12-18T05:17:56;-5.00;99.90
12901;DHT22;6518;50.930;5.344;2022-12-18T05:20:23;-5.00;99.90
12901;DHT22;6518;50.930;5.344;2022-12-18T05:22:50;-5.00;99.90
12901;DHT22;6518;50.930;5.344;2022-12-18T05:25:17;-4.90;99.90
12901;DHT22;6518;50.930;5.344;2022-12-18T05:27:46;-4.90;99.90
12901;DHT22;6518;50.930;5.344;2022-12-18T05:30:16;-4.90;99.90
12901;DHT22;6518;50.930;5.344;2022-12-18T05:32:43;-4.90;99.90
12901;DHT22;6518;50.930;5.344;2022-12-18T05:35:11;-4.80;99.90
12901;DHT22;6518;50.930;5.344;2022-12-18T05:37:38;-4.80;99.90
12901;DHT22;6518;50.930;5.344;2022-12-18T05:40:06;-4.90;99.90
12901;DHT22;6518;50.930;5.344;2022-12-18T05:42:35;-4.90;99.90
12901;DHT22;6518;50.930;5.344;2022-12-18T05:45:05;-4.90;99.90
12901;DHT22;6518;50.930;5.344;2022-12-18T05:47:32;-4.90;99.90
12901;DHT22;6518;50.930;5.344;2022-12-18T05:49:59;-4.90;99.90
12901;DHT22;6518;50.930;5.344;2022-12-18T05:52:26;-4.90;99.90
12901;DHT22;6518;50.930;5.344;2022-12-18T05:54:53;-4.90;99.90
12901;DHT22;6518;50.930;5.344;2022-12-18T05:57:20;-4.90;99.90
12901;DHT22;6518;50.930;5.344;2022-12-18T05:59:47;-5.00;99.90
12901;DHT22;6518;50.930;5.344;2022-12-18T06:02:15;-5.00;99.60
12901;DHT22;6518;50.930;5.344;2022-12-18T06:04:42;-5.10;99.20
12901;DHT22;6518;50.930;5.344;2022-12-18T06:07:09;-5.10;99.00
12901;DHT22;6518;50.930;5.344;2022-12-18T06:09:36;-5.20;99.40
12901;DHT22;6518;50.930;5.344;2022-12-18T06:12:03;-5.20;99.00
12901;DHT22;6518;50.930;5.344;2022-12-18T06:14:30;-5.20;99.30
12901;DHT22;6518;50.930;5.344;2022-12-18T06:16:57;-5.20;99.40
12901;DHT22;6518;50.930;5.344;2022-12-18T06:19:25;-5.30;99.20
12901;DHT22;6518;50.930;5.344;2022-12-18T06:21:52;-5.30;99.00
12901;DHT22;6518;50.930;5.344;2022-12-18T06:24:19;-5.30;98.80
12901;DHT22;6518;50.930;5.344;2022-12-18T06:26:46;-5.30;99.10
12901;DHT22;6518;50.930;5.344;2022-12-18T06:29:13;-5.30;99.00
12901;DHT22;6518;50.930;5.344;2022-12-18T06:31:40;-5.30;99.10
12901;DHT22;6518;50.930;5.344;2022-12-18T06:34:07;-5.30;99.50
12901;DHT22;6518;50.930;5.344;2022-12-18T06:36:35;-5.30;99.50
12901;DHT22;6518;50.930;5.344;2022-12-18T06:39:02;-5.30;99.30
12901;DHT22;6518;50.930;5.344;2022-12-18T06:41:29;-5.30;99.50
12901;DHT22;6518;50.930;5.344;2022-12-18T06:43:57;-5.30;99.80
12901;DHT22;6518;50.930;5.344;2022-12-18T06:46:24;-5.30;98.90
12901;DHT22;6518;50.930;5.344;2022-12-18T06:48:51;-5.30;98.20
12901;DHT22;6518;50.930;5.344;2022-12-18T06:51:19;-5.30;97.90
12901;DHT22;6518;50.930;5.344;2022-12-18T06:53:48;-5.40;98.10
12901;DHT22;6518;50.930;5.344;2022-12-18T06:56:15;-5.40;99.10
12901;DHT22;6518;50.930;5.344;2022-12-18T06:58:42;-5.40;99.30
12901;DHT22;6518;50.930;5.344;2022-12-18T07:01:10;-5.40;99.50
12901;DHT22;6518;50.930;5.344;2022-12-18T07:03:38;-5.40;99.50
12901;DHT22;6518;50.930;5.344;2022-12-18T07:06:05;-5.40;99.30
12901;DHT22;6518;50.930;5.344;2022-12-18T07:08:32;-5.40;99.10
12901;DHT22;6518;50.930;5.344;2022-12-18T07:11:03;-5.40;99.30
12901;DHT22;6518;50.930;5.344;2022-12-18T07:13:30;-5.40;99.80
12901;DHT22;6518;50.930;5.344;2022-12-18T07:16:04;-5.40;99.90
12901;DHT22;6518;50.930;5.344;2022-12-18T07:18:31;-5.40;99.90
12901;DHT22;6518;50.930;5.344;2022-12-18T07:20:58;-5.40;99.20
12901;DHT22;6518;50.930;5.344;2022-12-18T07:23:24;-5.40;98.40
12901;DHT22;6518;50.930;5.344;2022-12-18T07:25:51;-5.40;98.50
12901;DHT22;6518;50.930;5.344;2022-12-18T07:28:20;-5.40;99.00
12901;DHT22;6518;50.930;5.344;2022-12-18T07:30:46;-5.40;99.80
12901;DHT22;6518;50.930;5.344;2022-12-18T07:33:13;-5.30;99.90
12901;DHT22;6518;50.930;5.344;2022-12-18T07:35:40;-5.30;99.90
12901;DHT22;6518;50.930;5.344;2022-12-18T07:38:07;-5.30;99.90
12901;DHT22;6518;50.930;5.344;2022-12-18T07:40:34;-5.30;99.30
12901;DHT22;6518;50.930;5.344;2022-12-18T07:43:01;-5.30;99.70
12901;DHT22;6518;50.930;5.344;2022-12-18T07:45:33;-5.30;99.90
12901;DHT22;6518;50.930;5.344;2022-12-18T07:47:59;-5.40;99.90
12901;DHT22;6518;50.930;5.344;2022-12-18T07:50:33;-5.40;99.90
12901;DHT22;6518;50.930;5.344;2022-12-18T07:53:00;-5.40;99.90
12901;DHT22;6518;50.930;5.344;2022-12-18T07:55:29;-5.40;99.90
12901;DHT22;6518;50.930;5.344;2022-12-18T07:57:55;-5.40;99.90
12901;DHT22;6518;50.930;5.344;2022-12-18T08:00:22;-5.30;99.90
12901;DHT22;6518;50.930;5.344;2022-12-18T08:02:50;-5.30;99.90
12901;DHT22;6518;50.930;5.344;2022-12-18T08:05:17;-5.30;99.90
12901;DHT22;6518;50.930;5.344;2022-12-18T08:07:44;-5.20;99.90
12901;DHT22;6518;50.930;5.344;2022-12-18T08:10:11;-5.20;99.90
12901;DHT22;6518;50.930;5.344;2022-12-18T08:12:38;-5.20;99.90
12901;DHT22;6518;50.930;5.344;2022-12-18T08:15:06;-5.10;99.90
12901;DHT22;6518;50.930;5.344;2022-12-18T08:17:33;-5.10;99.90
12901;DHT22;6518;50.930;5.344;2022-12-18T08:20:01;-5.00;99.90
12901;DHT22;6518;50.930;5.344;2022-12-18T08:22:28;-4.90;99.90
12901;DHT22;6518;50.930;5.344;2022-12-18T08:24:55;-4.80;99.90
12901;DHT22;6518;50.930;5.344;2022-12-18T08:27:22;-4.80;99.90
12901;DHT22;6518;50.930;5.344;2022-12-18T08:29:49;-4.80;99.70
12901;DHT22;6518;50.930;5.344;2022-12-18T08:32:16;-4.80;99.90
12901;DHT22;6518;50.930;5.344;2022-12-18T08:34:42;-4.70;99.90
12901;DHT22;6518;50.930;5.344;2022-12-18T08:37:11;-4.70;99.90
12901;DHT22;6518;50.930;5.344;2022-12-18T08:39:38;-4.70;99.70
12901;DHT22;6518;50.930;5.344;2022-12-18T08:42:05;-4.70;99.50
12901;DHT22;6518;50.930;5.344;2022-12-18T08:44:49;-4.60;99.60
12901;DHT22;6518;50.930;5.344;2022-12-18T08:47:16;-4.60;99.90
12901;DHT22;6518;50.930;5.344;2022-12-18T08:49:43;-4.50;99.80
12901;DHT22;6518;50.930;5.344;2022-12-18T08:52:11;-4.50;99.90
12901;DHT22;6518;50.930;5.344;2022-12-18T08:54:38;-4.40;99.90
12901;DHT22;6518;50.930;5.344;2022-12-18T08:57:05;-4.40;99.90
12901;DHT22;6518;50.930;5.344;2022-12-18T08:59:32;-4.30;99.90
12901;DHT22;6518;50.930;5.344;2022-12-18T09:02:04;-4.30;99.90
12901;DHT22;6518;50.930;5.344;2022-12-18T09:04:32;-4.20;99.90
12901;DHT22;6518;50.930;5.344;2022-12-18T09:07:00;-4.20;99.80
12901;DHT22;6518;50.930;5.344;2022-12-18T09:09:28;-4.10;99.90
12901;DHT22;6518;50.930;5.344;2022-12-18T09:11:55;-4.00;99.90
12901;DHT22;6518;50.930;5.344;2022-12-18T09:14:22;-4.00;99.90
12901;DHT22;6518;50.930;5.344;2022-12-18T09:16:49;-4.00;98.60
12901;DHT22;6518;50.930;5.344;2022-12-18T09:19:15;-3.90;98.80
12901;DHT22;6518;50.930;5.344;2022-12-18T09:21:42;-3.90;98.70
12901;DHT22;6518;50.930;5.344;2022-12-18T09:24:12;-3.90;98.50
12901;DHT22;6518;50.930;5.344;2022-12-18T09:26:41;-3.80;99.30
12901;DHT22;6518;50.930;5.344;2022-12-18T09:29:07;-3.80;99.60
12901;DHT22;6518;50.930;5.344;2022-12-18T09:31:38;-3.70;98.60
12901;DHT22;6518;50.930;5.344;2022-12-18T09:34:06;-3.70;98.50
12901;DHT22;6518;50.930;5.344;2022-12-18T09:36:33;-3.60;98.60
12901;DHT22;6518;50.930;5.344;2022-12-18T09:39:00;-3.60;98.30
12901;DHT22;6518;50.930;5.344;2022-12-18T09:41:39;-3.50;98.50
12901;DHT22;6518;50.930;5.344;2022-12-18T09:44:16;-3.50;98.20
12901;DHT22;6518;50.930;5.344;2022-12-18T09:46:47;-3.40;98.40
12901;DHT22;6518;50.930;5.344;2022-12-18T09:49:18;-3.40;98.40
12901;DHT22;6518;50.930;5.344;2022-12-18T09:51:49;-3.40;98.30
12901;DHT22;6518;50.930;5.344;2022-12-18T09:54:21;-3.30;97.80
12901;DHT22;6518;50.930;5.344;2022-12-18T09:56:48;-3.20;97.90
12901;DHT22;6518;50.930;5.344;2022-12-18T09:59:23;-3.20;98.60
12901;DHT22;6518;50.930;5.344;2022-12-18T10:01:50;-3.10;99.00
12901;DHT22;6518;50.930;5.344;2022-12-18T10:04:17;-3.00;97.60
12901;DHT22;6518;50.930;5.344;2022-12-18T10:06:49;-3.00;96.90
12901;DHT22;6518;50.930;5.344;2022-12-18T10:09:26;-3.00;97.30
12901;DHT22;6518;50.930;5.344;2022-12-18T10:12:00;-3.00;97.10
12901;DHT22;6518;50.930;5.344;2022-12-18T10:14:36;-3.00;97.60
12901;DHT22;6518;50.930;5.344;2022-12-18T10:17:14;-3.00;97.90
12901;DHT22;6518;50.930;5.344;2022-12-18T10:19:46;-2.90;97.60
12901;DHT22;6518;50.930;5.344;2022-12-18T10:22:24;-2.90;98.20
12901;DHT22;6518;50.930;5.344;2022-12-18T10:24:57;-2.80;98.30
12901;DHT22;6518;50.930;5.344;2022-12-18T10:27:27;-2.80;98.30
12901;DHT22;6518;50.930;5.344;2022-12-18T10:29:57;-2.80;97.40
12901;DHT22;6518;50.930;5.344;2022-12-18T10:32:28;-2.80;97.80
12901;DHT22;6518;50.930;5.344;2022-12-18T10:34:57;-2.70;97.90
12901;DHT22;6518;50.930;5.344;2022-12-18T10:37:25;-2.70;98.40
12901;DHT22;6518;50.930;5.344;2022-12-18T10:40:08;-2.60;98.50
12901;DHT22;6518;50.930;5.344;2022-12-18T10:42:36;-2.60;98.70
12901;DHT22;6518;50.930;5.344;2022-12-18T10:45:13;-2.60;98.60
12901;DHT22;6518;50.930;5.344;2022-12-18T10:47:43;-2.50;99.50
12901;DHT22;6518;50.930;5.344;2022-12-18T10:50:20;-2.40;99.90
12901;DHT22;6518;50.930;5.344;2022-12-18T10:52:57;-2.40;99.60
12901;DHT22;6518;50.930;5.344;2022-12-18T10:55:25;-2.40;99.00
12901;DHT22;6518;50.930;5.344;2022-12-18T10:57:54;-2.40;98.80
12901;DHT22;6518;50.930;5.344;2022-12-18T11:00:26;-2.40;99.00
12901;DHT22;6518;50.930;5.344;2022-12-18T11:02:55;-2.40;99.30
12901;DHT22;6518;50.930;5.344;2022-12-18T11:05:27;-2.40;99.70
12901;DHT22;6518;50.930;5.344;2022-12-18T11:07:55;-2.30;99.90
12901;DHT22;6518;50.930;5.344;2022-12-18T11:10:25;-2.30;99.90
12901;DHT22;6518;50.930;5.344;2022-12-18T11:12:52;-2.20;99.90
12901;DHT22;6518;50.930;5.344;2022-12-18T11:15:21;-2.10;99.90
12901;DHT22;6518;50.930;5.344;2022-12-18T11:17:51;-2.10;99.90
12901;DHT22;6518;50.930;5.344;2022-12-18T11:20:28;-2.00;99.90
12901;DHT22;6518;50.930;5.344;2022-12-18T11:22:59;-2.00;99.90
12901;DHT22;6518;50.930;5.344;2022-12-18T11:25:26;-2.00;99.90
12901;DHT22;6518;50.930;5.344;2022-12-18T11:27:55;-1.90;99.90
12901;DHT22;6518;50.930;5.344;2022-12-18T11:30:25;-1.90;99.90
12901;DHT22;6518;50.930;5.344;2022-12-18T11:32:56;-1.80;99.90
12901;DHT22;6518;50.930;5.344;2022-12-18T11:35:42;-1.80;99.90
12901;DHT22;6518;50.930;5.344;2022-12-18T11:38:20;-1.80;99.90
12901;DHT22;6518;50.930;5.344;2022-12-18T11:40:53;-1.70;99.90
12901;DHT22;6518;50.930;5.344;2022-12-18T11:43:26;-1.60;99.90
12901;DHT22;6518;50.930;5.344;2022-12-18T11:45:59;-1.60;99.90
12901;DHT22;6518;50.930;5.344;2022-12-18T11:48:32;-1.60;99.90
12901;DHT22;6518;50.930;5.344;2022-12-18T11:51:01;-1.70;98.60
12901;DHT22;6518;50.930;5.344;2022-12-18T11:53:30;-1.70;98.80
12901;DHT22;6518;50.930;5.344;2022-12-18T11:56:03;-1.70;99.30
12901;DHT22;6518;50.930;5.344;2022-12-18T11:58:47;-1.70;99.20
12901;DHT22;6518;50.930;5.344;2022-12-18T12:01:23;-1.70;99.70
12901;DHT22;6518;50.930;5.344;2022-12-18T12:04:22;-1.70;99.50
12901;DHT22;6518;50.930;5.344;2022-12-18T12:07:00;-1.70;99.60
12901;DHT22;6518;50.930;5.344;2022-12-18T12:09:36;-1.70;99.20
12901;DHT22;6518;50.930;5.344;2022-12-18T12:12:17;-1.70;99.40
12901;DHT22;6518;50.930;5.344;2022-12-18T12:14:54;-1.70;99.70
12901;DHT22;6518;50.930;5.344;2022-12-18T12:17:30;-1.70;99.00
12901;DHT22;6518;50.930;5.344;2022-12-18T12:20:07;-1.70;99.40
12901;DHT22;6518;50.930;5.344;2022-12-18T12:22:42;-1.70;99.00
12901;DHT22;6518;50.930;5.344;2022-12-18T12:25:31;-1.70;98.70
12901;DHT22;6518;50.930;5.344;2022-12-18T12:28:10;-1.70;99.90
12901;DHT22;6518;50.930;5.344;2022-12-18T12:30:47;-1.60;99.90
12901;DHT22;6518;50.930;5.344;2022-12-18T12:33:27;-1.50;99.90
12901;DHT22;6518;50.930;5.344;2022-12-18T12:36:08;-1.40;99.90
12901;DHT22;6518;50.930;5.344;2022-12-18T12:38:42;-1.40;99.60
12901;DHT22;6518;50.930;5.344;2022-12-18T12:41:14;-1.40;98.40
12901;DHT22;6518;50.930;5.344;2022-12-18T12:43:58;-1.50;98.80
12901;DHT22;6518;50.930;5.344;2022-12-18T12:46:26;-1.50;99.00
12901;DHT22;6518;50.930;5.344;2022-12-18T12:49:00;-1.50;98.50
12901;DHT22;6518;50.930;5.344;2022-12-18T12:51:33;-1.40;99.10
12901;DHT22;6518;50.930;5.344;2022-12-18T12:54:03;-1.50;98.90
12901;DHT22;6518;50.930;5.344;2022-12-18T12:56:38;-1.50;99.70
12901;DHT22;6518;50.930;5.344;2022-12-18T12:59:15;-1.40;99.20
12901;DHT22;6518;50.930;5.344;2022-12-18T13:01:52;-1.40;99.40
12901;DHT22;6518;50.930;5.344;2022-12-18T13:04:27;-1.40;99.80
12901;DHT22;6518;50.930;5.344;2022-12-18T13:07:03;-1.40;99.90
12901;DHT22;6518;50.930;5.344;2022-12-18T13:09:34;-1.30;99.90
12901;DHT22;6518;50.930;5.344;2022-12-18T13:12:03;-1.30;99.20
12901;DHT22;6518;50.930;5.344;2022-12-18T13:14:48;-1.30;99.10
12901;DHT22;6518;50.930;5.344;2022-12-18T13:20:11;-1.20;99.90
12901;DHT22;6518;50.930;5.344;2022-12-18T13:22:43;-1.10;99.90
12901;DHT22;6518;50.930;5.344;2022-12-18T13:25:30;-1.00;99.90
12901;DHT22;6518;50.930;5.344;2022-12-18T13:28:02;-1.00;99.90
12901;DHT22;6518;50.930;5.344;2022-12-18T13:30:54;-1.00;99.90
12901;DHT22;6518;50.930;5.344;2022-12-18T13:33:45;-1.00;99.90
12901;DHT22;6518;50.930;5.344;2022-12-18T13:36:15;-1.10;99.90
12901;DHT22;6518;50.930;5.344;2022-12-18T13:38:44;-1.10;99.90
12901;DHT22;6518;50.930;5.344;2022-12-18T13:41:26;-1.10;99.90
12901;DHT22;6518;50.930;5.344;2022-12-18T13:43:54;-1.10;99.90
12901;DHT22;6518;50.930;5.344;2022-12-18T13:46:27;-1.10;99.90
12901;DHT22;6518;50.930;5.344;2022-12-18T13:48:57;-1.10;99.90
12901;DHT22;6518;50.930;5.344;2022-12-18T13:51:25;-1.10;99.90
12901;DHT22;6518;50.930;5.344;2022-12-18T13:53:58;-1.10;99.90
12901;DHT22;6518;50.930;5.344;2022-12-18T13:56:27;-1.00;99.90
12901;DHT22;6518;50.930;5.344;2022-12-18T13:59:16;-1.00;99.90
12901;DHT22;6518;50.930;5.344;2022-12-18T14:01:46;-1.00;99.90
12901;DHT22;6518;50.930;5.344;2022-12-18T14:04:20;-1.00;99.90
12901;DHT22;6518;50.930;5.344;2022-12-18T14:06:50;-1.00;99.90
12901;DHT22;6518;50.930;5.344;2022-12-18T14:09:23;-0.90;99.90
12901;DHT22;6518;50.930;5.344;2022-12-18T14:11:51;-0.80;99.90
12901;DHT22;6518;50.930;5.344;2022-12-18T14:14:18;-0.80;99.90
12901;DHT22;6518;50.930;5.344;2022-12-18T14:16:46;-0.80;99.90
12901;DHT22;6518;50.930;5.344;2022-12-18T14:19:16;-0.80;99.90
12901;DHT22;6518;50.930;5.344;2022-12-18T14:21:47;-0.80;99.90
12901;DHT22;6518;50.930;5.344;2022-12-18T14:24:16;-0.90;99.70
12901;DHT22;6518;50.930;5.344;2022-12-18T14:26:45;-0.90;99.90
12901;DHT22;6518;50.930;5.344;2022-12-18T14:29:20;-1.00;99.90
12901;DHT22;6518;50.930;5.344;2022-12-18T14:32:06;-1.00;99.90
12901;DHT22;6518;50.930;5.344;2022-12-18T14:34:33;-1.00;99.90
12901;DHT22;6518;50.930;5.344;2022-12-18T14:37:00;-1.00;99.90
12901;DHT22;6518;50.930;5.344;2022-12-18T14:39:27;-1.00;99.90
12901;DHT22;6518;50.930;5.344;2022-12-18T14:41:55;-1.00;99.90
12901;DHT22;6518;50.930;5.344;2022-12-18T14:44:22;-0.90;99.90
12901;DHT22;6518;50.930;5.344;2022-12-18T14:46:50;-0.90;99.90
12901;DHT22;6518;50.930;5.344;2022-12-18T14:49:23;-0.90;99.90
12901;DHT22;6518;50.930;5.344;2022-12-18T14:51:52;-0.90;99.90
12901;DHT22;6518;50.930;5.344;2022-12-18T14:54:21;-0.90;99.90
12901;DHT22;6518;50.930;5.344;2022-12-18T14:56:50;-0.80;99.90
12901;DHT22;6518;50.930;5.344;2022-12-18T14:59:21;-0.80;99.90
12901;DHT22;6518;50.930;5.344;2022-12-18T15:01:56;-0.70;99.90
12901;DHT22;6518;50.930;5.344;2022-12-18T15:04:26;-0.60;99.90
12901;DHT22;6518;50.930;5.344;2022-12-18T15:07:05;-0.60;99.90
12901;DHT22;6518;50.930;5.344;2022-12-18T15:09:35;-0.60;99.90
12901;DHT22;6518;50.930;5.344;2022-12-18T15:12:02;-0.60;99.90
12901;DHT22;6518;50.930;5.344;2022-12-18T15:14:34;-0.70;99.90
12901;DHT22;6518;50.930;5.344;2022-12-18T15:17:05;-0.70;99.90
12901;DHT22;6518;50.930;5.344;2022-12-18T15:19:38;-0.80;99.90
12901;DHT22;6518;50.930;5.344;2022-12-18T15:22:21;-0.80;99.90
12901;DHT22;6518;50.930;5.344;2022-12-18T15:24:50;-0.90;99.90
12901;DHT22;6518;50.930;5.344;2022-12-18T15:27:36;-0.90;99.90
12901;DHT22;6518;50.930;5.344;2022-12-18T15:30:23;-0.90;99.90
12901;DHT22;6518;50.930;5.344;2022-12-18T15:32:52;-0.90;99.90
12901;DHT22;6518;50.930;5.344;2022-12-18T15:35:22;-0.90;99.90
12901;DHT22;6518;50.930;5.344;2022-12-18T15:37:51;-0.90;99.90
12901;DHT22;6518;50.930;5.344;2022-12-18T15:40:20;-0.90;99.90
12901;DHT22;6518;50.930;5.344;2022-12-18T15:42:54;-0.90;99.90
12901;DHT22;6518;50.930;5.344;2022-12-18T15:45:40;-0.90;99.90
12901;DHT22;6518;50.930;5.344;2022-12-18T15:48:20;-0.80;99.90
12901;DHT22;6518;50.930;5.344;2022-12-18T15:50:48;-0.70;99.90
12901;DHT22;6518;50.930;5.344;2022-12-18T15:53:15;-0.60;99.90
12901;DHT22;6518;50.930;5.344;2022-12-18T15:55:42;-0.60;99.90
12901;DHT22;6518;50.930;5.344;2022-12-18T15:58:27;-0.60;99.90
12901;DHT22;6518;50.930;5.344;2022-12-18T16:00:56;-0.60;99.90
12901;DHT22;6518;50.930;5.344;2022-12-18T16:03:25;-0.60;99.90
12901;DHT22;6518;50.930;5.344;2022-12-18T16:05:52;-0.60;99.90
12901;DHT22;6518;50.930;5.344;2022-12-18T16:08:19;-0.60;99.90